sim
Sign-in with your pilot id or email,
or register
Callsign
Passwort

Schedule Details

Flight Number: DLH2039
Departure: Berlin Tegel Airport (EDDT) at 13:30
Arrival: Munich Airport (EDDM) at 14:40
Route: Lufthansa Passenger Schedule. Enter filed route here before submitting Pirep.

Weather Information
Getting current METAR information for EDDT 230920Z 24003KT 140V300 CAVOK 24/13 Q1005 NOSIG
Getting current METAR information for EDDM 230920Z 26009KT 6000 SHRA SCT012 FEW015CB BKN020 15/14 Q1011 TEMPO 4000

Schedule Frequency

Route Map